Tanit — 2DYL7 — position and weather

sailwx.info

Track history (hours):
 
Tides and Currents Weather Stations Pressure Air Temp Water Temp Dewpoint Dewpoint Depression Visibility Wind Speed Wind Dir Waves Ship Positions

Tanit

Last reported at 2015-Oct-19 08:28 UTC. Time now 2016-Feb-12 18:11 UTC.
Position N 37°57' E 015°41'.
Warning: this ship's position is months out of date.

Length 40 m; draft 2.8 m.

Type: Pleasure craft. MMSI: 235083004.

Date/timePositionNaut miles runAvg speedWind from/ knotsBaromVisibWave heightAir tempDewpointWater temp
2015-Oct-19 08:28N 37°57' E 015°41'8 8.7
2015-Oct-19 07:33N 38°04' E 015°36'1010.3
2015-Oct-19 06:33N 38°14' E 015°37'9 9.3
2015-Oct-19 05:33N 38°23' E 015°40'1110.9
2015-Oct-19 04:33N 38°34' E 015°36'13211.9
2015-Oct-18 17:28N 40°31' E 014°18'7 7.2
2015-Oct-18 16:33N 40°35' E 014°11'1111.2
2015-Oct-18 15:33N 40°40' E 013°58'1110.9
2015-Oct-18 14:31N 40°46' E 013°45'25711.1
2015-Oct-17 15:27N 43°31' E 009°20'1011.3
2015-Oct-17 14:33N 43°40' E 009°11'1211.7
2015-Oct-17 13:32N 43°49' E 009°01'1311.7
2015-Oct-17 12:27N 43°59' E 008°51'1511.0
2015-Oct-17 11:05N 44°12' E 008°38'510.3
2015-Oct-17 10:33N 44°16' E 008°34'  
2015-Oct-09 15:06N 44°19' E 008°29'  
Track history (hours):
 
Tides and Currents Weather Stations Pressure Air Temp Water Temp Dewpoint Dewpoint Depression Visibility Wind Speed Wind Dir Waves Ship Positions

Tanit

Last reported at 2015-Oct-19 08:28 UTC. Time now 2016-Feb-12 18:11 UTC.
Position N 37°57' E 015°41'.
Warning: this ship's position is months out of date.

Length 40 m; draft 2.8 m.

Type: Pleasure craft. MMSI: 235083004.

Date/timePositionNaut miles runAvg speedWind from/ knotsBaromVisibWave heightAir tempDewpointWater temp
2015-Oct-19 08:28N 37°57' E 015°41'8 8.7
2015-Oct-19 07:33N 38°04' E 015°36'1010.3
2015-Oct-19 06:33N 38°14' E 015°37'9 9.3
2015-Oct-19 05:33N 38°23' E 015°40'1110.9
2015-Oct-19 04:33N 38°34' E 015°36'13211.9
2015-Oct-18 17:28N 40°31' E 014°18'7 7.2
2015-Oct-18 16:33N 40°35' E 014°11'1111.2
2015-Oct-18 15:33N 40°40' E 013°58'1110.9
2015-Oct-18 14:31N 40°46' E 013°45'25711.1
2015-Oct-17 15:27N 43°31' E 009°20'1011.3
2015-Oct-17 14:33N 43°40' E 009°11'1211.7
2015-Oct-17 13:32N 43°49' E 009°01'1311.7
2015-Oct-17 12:27N 43°59' E 008°51'1511.0
2015-Oct-17 11:05N 44°12' E 008°38'510.3
2015-Oct-17 10:33N 44°16' E 008°34'  
2015-Oct-09 15:06N 44°19' E 008°29'  

Dump ship's entire track history